Time;durP1;ratioP1;P1;durP2;ratioP2;P2;SDS_P1;SDS_P2;PMS_P1;PMS_P2;Temp;Humidity;BMP_temperature;BMP_pressure;BME280_temperature;BME280_humidity;BME280_pressure;Samples;Min_cycle;Max_cycle;Signal;HPM_P1;HPM_P2
2023/10/30 00:00:21;;;;;;;4.85;4.32;;;12.50;99.90;;;;;;4990043;28;20022;-49
2023/10/30 00:02:46;;;;;;;5.10;4.50;;;12.50;99.90;;;;;;4990401;28;20035;-52
2023/10/30 00:05:12;;;;;;;8.32;4.75;;;12.50;99.90;;;;;;4988812;28;20066;-51
2023/10/30 00:07:37;;;;;;;12.48;8.35;;;12.50;99.90;;;;;;4990567;28;20023;-50
2023/10/30 00:10:03;;;;;;;54.35;32.60;;;12.50;99.90;;;;;;4990232;28;20076;-54
2023/10/30 00:12:29;;;;;;;9.93;7.13;;;12.60;99.90;;;;;;4988745;28;20490;-51
2023/10/30 00:14:54;;;;;;;8.20;4.93;;;12.60;99.90;;;;;;4990028;28;20031;-50
2023/10/30 00:17:20;;;;;;;10.40;5.25;;;12.60;99.90;;;;;;4990352;28;20072;-47
2023/10/30 00:19:45;;;;;;;7.70;5.15;;;12.60;99.90;;;;;;4988732;28;20080;-51
2023/10/30 00:22:11;;;;;;;6.57;4.82;;;12.60;99.90;;;;;;4986444;28;20029;-53
2023/10/30 00:24:39;;;;;;;4.95;4.45;;;12.70;99.90;;;;;;4988052;28;20041;-52
2023/10/30 00:27:05;;;;;;;7.30;5.07;;;12.70;99.90;;;;;;4989291;28;20034;-51
2023/10/30 00:29:30;;;;;;;4.40;4.05;;;12.70;99.90;;;;;;4989411;28;20512;-49
2023/10/30 00:31:57;;;;;;;5.75;4.88;;;12.70;99.90;;;;;;4990489;28;20043;-52
2023/10/30 00:34:22;;;;;;;5.53;3.78;;;12.70;99.90;;;;;;4990186;28;20113;-51
2023/10/30 00:36:48;;;;;;;5.55;3.78;;;12.70;99.90;;;;;;4989801;28;20026;-48
2023/10/30 00:39:13;;;;;;;3.92;3.05;;;12.70;99.90;;;;;;4989613;28;20023;-50
2023/10/30 00:41:39;;;;;;;4.50;3.25;;;12.70;99.90;;;;;;4989856;28;20113;-55
2023/10/30 00:44:05;;;;;;;4.95;2.60;;;12.60;99.90;;;;;;4989818;28;20432;-52
2023/10/30 00:46:30;;;;;;;5.25;2.42;;;12.70;99.90;;;;;;4989594;28;20137;-47
2023/10/30 00:48:55;;;;;;;2.30;2.10;;;12.70;99.90;;;;;;4989379;28;20076;-49
2023/10/30 00:51:21;;;;;;;7.68;2.33;;;12.70;99.90;;;;;;4989611;28;20413;-53
2023/10/30 00:53:47;;;;;;;5.28;2.03;;;12.70;99.90;;;;;;4989495;28;20072;-52
2023/10/30 00:56:12;;;;;;;1.98;1.77;;;12.70;99.90;;;;;;4989541;28;20035;-51
2023/10/30 00:58:38;;;;;;;8.20;2.38;;;12.70;99.90;;;;;;4989264;28;20026;-51
2023/10/30 01:01:03;;;;;;;4.28;1.80;;;12.70;99.90;;;;;;4989536;28;20034;-49
2023/10/30 01:03:29;;;;;;;5.68;2.65;;;12.70;99.90;;;;;;4989448;28;20076;-50
2023/10/30 01:05:58;;;;;;;3.13;2.00;;;12.70;99.90;;;;;;4988397;28;20065;-51
2023/10/30 01:08:25;;;;;;;4.57;1.60;;;12.70;99.90;;;;;;4988996;28;20038;-51
2023/10/30 01:10:51;;;;;;;8.68;2.08;;;12.70;99.90;;;;;;4989415;28;20027;-49
2023/10/30 01:13:17;;;;;;;4.47;2.45;;;12.60;99.90;;;;;;4987955;28;20060;-46
2023/10/30 01:15:43;;;;;;;4.97;2.08;;;12.60;99.90;;;;;;4989609;28;20026;-51
2023/10/30 01:18:08;;;;;;;6.88;3.53;;;12.70;99.90;;;;;;4989259;28;20390;-51
2023/10/30 01:20:38;;;;;;;7.07;2.38;;;12.70;99.90;;;;;;4989196;28;20064;-47
2023/10/30 01:23:04;;;;;;;4.43;2.33;;;12.80;99.90;;;;;;4989332;28;20030;-52
2023/10/30 01:25:29;;;;;;;5.32;2.53;;;12.70;99.90;;;;;;4989659;28;20478;-52
2023/10/30 01:27:55;;;;;;;6.05;2.28;;;12.70;99.90;;;;;;4989063;28;20493;-50
2023/10/30 01:30:20;;;;;;;5.47;1.90;;;12.60;99.90;;;;;;4988848;28;20039;-52
2023/10/30 01:32:46;;;;;;;7.30;2.20;;;12.70;99.90;;;;;;4989181;28;20444;-50
2023/10/30 01:35:11;;;;;;;4.03;2.13;;;12.70;99.90;;;;;;4987777;28;20023;-51
2023/10/30 01:37:37;;;;;;;7.07;2.58;;;12.70;99.90;;;;;;4988953;28;20034;-51
2023/10/30 01:40:03;;;;;;;3.63;2.00;;;12.70;99.90;;;;;;4988892;28;20044;-52
2023/10/30 01:42:28;;;;;;;4.00;2.00;;;12.70;99.90;;;;;;4989082;28;20056;-50
2023/10/30 01:44:56;;;;;;;4.35;2.05;;;12.70;99.90;;;;;;4987722;28;20113;-50
2023/10/30 01:47:22;;;;;;;2.78;1.90;;;12.60;99.90;;;;;;4989161;28;20651;-52
2023/10/30 01:49:48;;;;;;;3.83;1.83;;;12.60;99.90;;;;;;4988539;28;20441;-49
2023/10/30 01:52:15;;;;;;;3.83;1.70;;;12.60;99.90;;;;;;4987575;28;20022;-49
2023/10/30 01:54:42;;;;;;;7.22;2.13;;;12.60;99.90;;;;;;4987424;28;20037;-46
2023/10/30 01:57:08;;;;;;;8.63;1.70;;;12.60;99.90;;;;;;4988733;28;20031;-50
2023/10/30 01:59:33;;;;;;;8.43;1.85;;;12.60;99.90;;;;;;4988399;28;20059;-48
2023/10/30 02:01:59;;;;;;;6.78;1.83;;;12.60;99.90;;;;;;4989059;28;20034;-48
2023/10/30 02:04:26;;;;;;;2.42;1.70;;;12.60;99.90;;;;;;4988718;28;20030;-48
2023/10/30 02:06:51;;;;;;;6.40;2.00;;;12.60;99.90;;;;;;4988949;28;20030;-46
2023/10/30 02:09:16;;;;;;;2.53;1.60;;;12.60;99.90;;;;;;4987026;28;20057;-49
2023/10/30 02:11:42;;;;;;;7.57;2.20;;;12.60;99.90;;;;;;4988336;28;20033;-46
2023/10/30 02:14:07;;;;;;;6.82;1.65;;;12.60;99.90;;;;;;4986779;28;20022;-51
2023/10/30 02:16:33;;;;;;;5.85;1.92;;;12.60;99.90;;;;;;4988581;28;20057;-48
2023/10/30 02:18:58;;;;;;;4.07;1.75;;;12.60;99.90;;;;;;4991422;28;20042;-51
2023/10/30 02:21:24;;;;;;;4.40;1.85;;;12.60;99.90;;;;;;4991807;28;20505;-48
2023/10/30 02:23:50;;;;;;;4.20;1.80;;;12.60;99.90;;;;;;4991689;28;20019;-48
2023/10/30 02:26:15;;;;;;;4.53;2.20;;;12.60;99.90;;;;;;4990382;28;20018;-48
2023/10/30 02:28:41;;;;;;;5.00;2.00;;;12.50;99.90;;;;;;4991402;28;20034;-48
2023/10/30 02:31:06;;;;;;;6.47;2.40;;;12.60;99.90;;;;;;4991801;28;20466;-51
2023/10/30 02:33:32;;;;;;;3.03;1.80;;;12.60;99.90;;;;;;4991724;28;20030;-48
2023/10/30 02:35:57;;;;;;;3.78;1.75;;;12.60;99.90;;;;;;4991690;28;20122;-49
2023/10/30 02:38:23;;;;;;;6.18;1.98;;;12.60;99.90;;;;;;4991259;28;20028;-51
2023/10/30 02:40:48;;;;;;;4.65;1.80;;;12.50;99.90;;;;;;4991359;28;20096;-47
2023/10/30 02:43:14;;;;;;;6.68;2.08;;;12.50;99.90;;;;;;4991352;28;20030;-53
2023/10/30 02:45:40;;;;;;;4.95;1.70;;;12.50;99.90;;;;;;4991267;28;20035;-50
2023/10/30 02:48:05;;;;;;;4.13;1.88;;;12.60;99.90;;;;;;4991397;28;20026;-48
2023/10/30 02:50:31;;;;;;;5.97;1.80;;;12.60;99.90;;;;;;4991698;28;20065;-48
2023/10/30 02:52:56;;;;;;;3.30;1.33;;;12.50;99.90;;;;;;4991763;28;20371;-49
2023/10/30 02:55:22;;;;;;;6.00;1.90;;;12.50;99.90;;;;;;4991661;28;20015;-53
2023/10/30 02:57:48;;;;;;;5.57;2.17;;;12.50;99.90;;;;;;4991782;28;20042;-48
2023/10/30 03:00:14;;;;;;;5.93;1.60;;;12.50;99.90;;;;;;4992005;28;20023;-53
2023/10/30 03:02:39;;;;;;;5.25;1.40;;;12.50;99.90;;;;;;4990236;28;20053;-52
2023/10/30 03:05:05;;;;;;;5.18;1.90;;;12.50;99.90;;;;;;4991692;28;20030;-51
2023/10/30 03:07:31;;;;;;;3.60;1.70;;;12.50;99.90;;;;;;4991906;28;20031;-52
2023/10/30 03:09:57;;;;;;;4.53;1.67;;;12.40;99.90;;;;;;4990857;28;20101;-50
2023/10/30 03:12:22;;;;;;;4.32;1.55;;;12.40;99.90;;;;;;4989905;28;20029;-49
2023/10/30 03:14:48;;;;;;;4.95;1.40;;;12.40;99.90;;;;;;4990938;28;20043;-49
2023/10/30 03:17:13;;;;;;;5.82;1.73;;;12.50;99.90;;;;;;4990880;28;20027;-48
2023/10/30 03:19:39;;;;;;;5.13;1.13;;;12.50;99.90;;;;;;4990754;28;20027;-49
2023/10/30 03:22:04;;;;;;;6.25;1.50;;;12.40;99.90;;;;;;4991021;28;20126;-50
2023/10/30 03:24:30;;;;;;;4.85;1.40;;;12.50;99.90;;;;;;4991162;28;20409;-48
2023/10/30 03:26:57;;;;;;;7.93;1.45;;;12.40;99.90;;;;;;4991066;28;20071;-52
2023/10/30 03:29:22;;;;;;;5.72;1.60;;;12.50;99.90;;;;;;4989178;28;20034;-49
2023/10/30 03:31:52;;;;;;;6.72;2.58;;;12.40;99.90;;;;;;4990852;28;20048;-53
2023/10/30 03:34:19;;;;;;;5.40;1.83;;;12.40;99.90;;;;;;4990916;28;20130;-51
2023/10/30 03:36:44;;;;;;;5.13;1.52;;;12.40;99.90;;;;;;4989739;28;20031;-50
2023/10/30 03:39:10;;;;;;;3.75;1.52;;;12.40;99.90;;;;;;4990451;28;20031;-49
2023/10/30 03:41:37;;;;;;;4.25;1.60;;;12.30;99.90;;;;;;4991637;28;20441;-48
2023/10/30 03:44:02;;;;;;;6.43;1.55;;;12.40;99.90;;;;;;4990910;28;20505;-49
2023/10/30 03:46:28;;;;;;;12.18;1.65;;;12.40;99.90;;;;;;4990407;28;20035;-51
2023/10/30 03:48:54;;;;;;;8.55;1.73;;;12.30;99.90;;;;;;4990147;28;20056;-50
2023/10/30 03:51:19;;;;;;;7.78;2.97;;;12.30;99.90;;;;;;4989559;28;20031;-50
2023/10/30 03:53:45;;;;;;;8.25;1.75;;;12.30;99.90;;;;;;4990743;28;20034;-50
2023/10/30 03:56:10;;;;;;;4.30;1.98;;;12.30;99.90;;;;;;4990601;28;20026;-52
2023/10/30 03:58:36;;;;;;;4.68;1.27;;;12.30;99.90;;;;;;4989110;28;20030;-48
2023/10/30 04:01:08;;;;;;;4.07;1.38;;;12.30;99.90;;;;;;4989270;28;20037;-49
2023/10/30 04:03:34;;;;;;;4.47;1.48;;;12.20;99.90;;;;;;4990362;28;20401;-51
2023/10/30 04:06:01;;;;;;;6.78;1.40;;;12.20;99.90;;;;;;4990359;28;20030;-49
2023/10/30 04:08:27;;;;;;;5.43;1.58;;;12.20;99.90;;;;;;4988514;28;20084;-50
2023/10/30 04:10:52;;;;;;;3.28;1.05;;;12.20;99.90;;;;;;4990326;28;20026;-49
2023/10/30 04:13:18;;;;;;;6.50;1.73;;;12.20;99.90;;;;;;4989900;28;20048;-49
2023/10/30 04:15:44;;;;;;;7.40;1.50;;;12.20;99.90;;;;;;4990265;28;20049;-48
2023/10/30 04:18:10;;;;;;;9.70;1.80;;;12.10;99.90;;;;;;4988813;28;20019;-50
2023/10/30 04:20:35;;;;;;;9.88;1.67;;;12.20;99.90;;;;;;4988837;28;20030;-49
2023/10/30 04:23:01;;;;;;;5.20;1.70;;;12.20;99.90;;;;;;4988936;28;20026;-49
2023/10/30 04:25:26;;;;;;;8.07;1.92;;;12.10;99.90;;;;;;4989036;28;20467;-52
2023/10/30 04:27:53;;;;;;;2.53;1.27;;;12.20;99.90;;;;;;4990833;28;20052;-51
2023/10/30 04:30:19;;;;;;;5.68;2.05;;;12.20;99.90;;;;;;4989688;28;20026;-53
2023/10/30 04:32:45;;;;;;;5.95;1.70;;;12.10;99.90;;;;;;4989908;28;20057;-56
2023/10/30 04:35:11;;;;;;;8.05;1.77;;;12.10;99.90;;;;;;4989813;28;20030;-48
2023/10/30 04:37:36;;;;;;;4.78;1.90;;;12.10;99.90;;;;;;4989683;28;20152;-47
2023/10/30 04:40:02;;;;;;;7.20;1.67;;;12.10;99.90;;;;;;4989241;28;20367;-48
2023/10/30 04:42:29;;;;;;;5.45;2.05;;;12.10;99.90;;;;;;4989641;28;20057;-53
2023/10/30 04:44:55;;;;;;;8.45;1.65;;;12.10;99.90;;;;;;4989444;28;20023;-48
2023/10/30 04:47:21;;;;;;;7.80;1.80;;;12.00;99.90;;;;;;4989546;28;20091;-47
2023/10/30 04:49:46;;;;;;;9.00;1.63;;;12.00;99.90;;;;;;4987814;28;20023;-52
2023/10/30 04:52:12;;;;;;;6.32;1.27;;;12.00;99.90;;;;;;4989444;28;20033;-50
2023/10/30 04:54:37;;;;;;;3.60;1.38;;;12.00;99.90;;;;;;4989391;28;20030;-52
2023/10/30 04:57:03;;;;;;;7.43;2.22;;;12.00;99.90;;;;;;4989263;28;20030;-50
2023/10/30 04:59:29;;;;;;;7.30;2.38;;;12.00;99.90;;;;;;4989004;28;20027;-48
2023/10/30 05:01:54;;;;;;;9.55;1.83;;;12.00;99.90;;;;;;4989230;28;20036;-53
2023/10/30 05:04:20;;;;;;;5.60;2.15;;;12.00;99.90;;;;;;4989139;28;20167;-48
2023/10/30 05:06:46;;;;;;;5.88;1.38;;;12.00;99.90;;;;;;4989273;28;20053;-48
2023/10/30 05:09:12;;;;;;;7.63;2.47;;;11.90;99.90;;;;;;4989435;28;20034;-49
2023/10/30 05:11:41;;;;;;;5.03;1.25;;;11.90;99.90;;;;;;4989254;28;20022;-47
2023/10/30 05:14:07;;;;;;;6.97;1.50;;;11.90;99.90;;;;;;4988960;28;20068;-47
2023/10/30 05:16:33;;;;;;;2.85;1.02;;;11.90;99.90;;;;;;4989194;28;20110;-50
2023/10/30 05:18:59;;;;;;;5.90;1.63;;;12.00;99.90;;;;;;4988948;28;20046;-48
2023/10/30 05:21:24;;;;;;;3.28;1.33;;;11.90;99.90;;;;;;4989227;28;20520;-50
2023/10/30 05:23:50;;;;;;;4.63;1.02;;;11.90;99.90;;;;;;4989021;28;20030;-47
2023/10/30 05:26:16;;;;;;;4.80;1.67;;;11.90;99.90;;;;;;4989131;28;20034;-48
2023/10/30 05:28:41;;;;;;;2.97;0.82;;;12.00;99.90;;;;;;4988840;28;20076;-53
2023/10/30 05:31:07;;;;;;;10.73;2.80;;;11.90;99.90;;;;;;4989125;28;20034;-51
2023/10/30 05:33:34;;;;;;;2.28;1.00;;;11.90;99.90;;;;;;4987611;28;20023;-49
2023/10/30 05:36:00;;;;;;;7.43;1.20;;;11.90;99.90;;;;;;4988912;28;20035;-50
2023/10/30 05:38:26;;;;;;;4.28;1.20;;;12.00;99.90;;;;;;4988692;28;20050;-52
2023/10/30 05:40:51;;;;;;;0.90;0.90;;;12.00;99.90;;;;;;4988827;28;20066;-47
2023/10/30 05:43:17;;;;;;;2.17;0.90;;;12.00;99.90;;;;;;4988783;28;20117;-45
2023/10/30 05:45:42;;;;;;;4.75;1.00;;;12.00;99.90;;;;;;4988721;28;20027;-52
2023/10/30 05:48:08;;;;;;;4.50;1.30;;;12.00;99.90;;;;;;4988493;28;20501;-54
2023/10/30 05:50:33;;;;;;;3.60;1.98;;;12.00;99.90;;;;;;4989057;28;20030;-50
2023/10/30 05:52:59;;;;;;;2.20;0.85;;;12.00;99.90;;;;;;4992057;28;20062;-48
2023/10/30 05:55:25;;;;;;;2.95;1.85;;;12.00;99.90;;;;;;4990811;28;20023;-53
2023/10/30 05:57:51;;;;;;;1.80;1.17;;;12.00;99.90;;;;;;4991904;28;20087;-53
2023/10/30 06:00:17;;;;;;;7.85;1.58;;;12.00;99.90;;;;;;4991763;28;20423;-48
2023/10/30 06:02:42;;;;;;;3.08;1.27;;;12.00;99.90;;;;;;4990429;28;20083;-54
2023/10/30 06:05:09;;;;;;;2.60;1.13;;;12.00;99.90;;;;;;4991933;28;20034;-48
2023/10/30 06:07:35;;;;;;;3.88;1.23;;;12.00;99.90;;;;;;4991918;28;20027;-55
2023/10/30 06:10:04;;;;;;;2.13;1.10;;;12.00;99.90;;;;;;4991492;28;20038;-48
2023/10/30 06:12:30;;;;;;;5.20;2.00;;;12.00;99.90;;;;;;4991508;28;20026;-50
2023/10/30 06:14:55;;;;;;;3.30;1.38;;;12.00;99.90;;;;;;4991726;28;20075;-53
2023/10/30 06:17:21;;;;;;;3.30;1.50;;;12.00;99.90;;;;;;4991954;28;20026;-53
2023/10/30 06:19:46;;;;;;;6.10;1.33;;;12.00;99.90;;;;;;4990146;28;20062;-52
2023/10/30 06:22:12;;;;;;;7.97;1.85;;;12.00;99.90;;;;;;4991640;28;20470;-53
2023/10/30 06:24:37;;;;;;;1.85;1.40;;;12.00;99.90;;;;;;4991637;28;20402;-53
2023/10/30 06:27:03;;;;;;;2.40;1.35;;;12.00;99.90;;;;;;4991369;28;20019;-50
2023/10/30 06:29:29;;;;;;;4.65;1.48;;;12.00;99.90;;;;;;4991320;28;20030;-50
2023/10/30 06:31:55;;;;;;;2.47;1.05;;;12.00;99.90;;;;;;4991468;28;20397;-50
2023/10/30 06:34:20;;;;;;;5.93;1.48;;;11.90;99.90;;;;;;4991482;28;20018;-56
2023/10/30 06:36:46;;;;;;;3.67;1.10;;;11.90;99.90;;;;;;4991448;28;20080;-49
2023/10/30 06:39:13;;;;;;;5.90;1.90;;;11.90;99.90;;;;;;4991087;28;20093;-52
2023/10/30 06:41:38;;;;;;;4.05;0.95;;;11.90;99.90;;;;;;4991365;28;20033;-47
2023/10/30 06:44:04;;;;;;;1.88;0.93;;;12.00;99.90;;;;;;4991146;28;20034;-52
2023/10/30 06:46:29;;;;;;;3.53;1.20;;;12.00;99.90;;;;;;4991239;28;20405;-49
2023/10/30 06:48:55;;;;;;;3.35;1.92;;;12.00;99.90;;;;;;4991195;28;20113;-53
2023/10/30 06:51:20;;;;;;;2.40;1.45;;;12.00;99.90;;;;;;4991195;28;20035;-50
2023/10/30 06:53:46;;;;;;;1.67;1.00;;;12.00;99.90;;;;;;4991135;28;20023;-48
2023/10/30 06:56:11;;;;;;;4.07;1.55;;;12.00;99.90;;;;;;4991069;28;20439;-51
2023/10/30 06:58:37;;;;;;;4.43;2.35;;;12.10;99.90;;;;;;4990914;28;20022;-53
2023/10/30 07:01:04;;;;;;;4.25;1.40;;;12.10;99.90;;;;;;4991314;28;20026;-49
2023/10/30 07:03:31;;;;;;;1.95;1.00;;;12.00;99.90;;;;;;4989830;28;20045;-48
2023/10/30 07:05:57;;;;;;;4.05;1.20;;;12.10;99.90;;;;;;4991060;28;20382;-55
2023/10/30 07:08:22;;;;;;;2.38;1.15;;;12.10;99.90;;;;;;4990585;28;20046;-54
2023/10/30 07:10:48;;;;;;;4.05;1.50;;;12.10;99.90;;;;;;4990853;28;20134;-51
2023/10/30 07:13:13;;;;;;;3.13;1.13;;;12.10;99.90;;;;;;4990585;28;20041;-50
2023/10/30 07:15:39;;;;;;;1.02;0.75;;;12.10;99.90;;;;;;4990907;28;20030;-49
2023/10/30 07:18:04;;;;;;;3.03;1.30;;;12.10;99.90;;;;;;4990645;28;20184;-46
2023/10/30 07:20:30;;;;;;;3.78;1.13;;;12.20;99.90;;;;;;4991019;28;20030;-50
2023/10/30 07:22:56;;;;;;;1.75;1.00;;;12.20;99.90;;;;;;4990615;28;20022;-51
2023/10/30 07:25:21;;;;;;;2.83;0.98;;;12.20;99.90;;;;;;4990663;28;20061;-49
2023/10/30 07:27:47;;;;;;;2.63;1.30;;;12.30;99.90;;;;;;4990806;28;20304;-48
2023/10/30 07:30:13;;;;;;;4.70;1.77;;;12.30;99.90;;;;;;4990424;28;20030;-47
2023/10/30 07:32:38;;;;;;;1.00;1.00;;;12.30;99.90;;;;;;4990533;28;20026;-51
2023/10/30 07:35:05;;;;;;;5.05;1.27;;;12.30;99.90;;;;;;4990517;28;20028;-51
2023/10/30 07:37:30;;;;;;;4.00;1.33;;;12.30;99.90;;;;;;4990599;28;20451;-48
2023/10/30 07:39:56;;;;;;;1.73;1.48;;;12.40;99.90;;;;;;4990403;28;20082;-50
2023/10/30 07:42:21;;;;;;;5.40;1.60;;;12.30;99.90;;;;;;4994373;28;20034;-52
2023/10/30 07:44:47;;;;;;;4.53;1.38;;;12.30;99.90;;;;;;5009965;28;20386;-53
2023/10/30 07:47:12;;;;;;;6.45;1.40;;;12.30;99.90;;;;;;5009948;28;20053;-52
2023/10/30 07:49:38;;;;;;;3.28;1.27;;;12.30;99.90;;;;;;5009334;28;20390;-53
2023/10/30 07:52:03;;;;;;;4.15;1.48;;;12.30;99.90;;;;;;5009781;28;20037;-52
2023/10/30 07:54:29;;;;;;;2.10;1.20;;;12.30;99.90;;;;;;5009307;28;20499;-48
2023/10/30 07:56:54;;;;;;;1.58;1.30;;;12.30;99.90;;;;;;5008245;28;20051;-50
2023/10/30 07:59:20;;;;;;;4.15;1.40;;;12.30;99.90;;;;;;5009294;28;20033;-51
2023/10/30 08:01:46;;;;;;;2.53;1.75;;;12.40;99.90;;;;;;5009506;28;20022;-48
2023/10/30 08:04:11;;;;;;;4.25;2.22;;;12.30;99.90;;;;;;5009833;28;20029;-52
2023/10/30 08:06:37;;;;;;;1.83;1.48;;;12.40;99.90;;;;;;5008966;28;20057;-50
2023/10/30 08:09:02;;;;;;;2.75;1.50;;;12.50;99.90;;;;;;5008942;28;20057;-51
2023/10/30 08:11:28;;;;;;;2.80;2.15;;;12.50;99.90;;;;;;5009508;28;20033;-54
2023/10/30 08:13:54;;;;;;;3.70;2.42;;;12.50;99.90;;;;;;4999577;28;20025;-49
2023/10/30 08:16:19;;;;;;;5.20;1.77;;;12.50;99.90;;;;;;4990108;28;20474;-53
2023/10/30 08:18:46;;;;;;;5.40;1.90;;;12.50;99.90;;;;;;4996059;28;20125;-51
2023/10/30 08:21:12;;;;;;;3.50;1.63;;;12.50;99.90;;;;;;5009440;28;20040;-51
2023/10/30 08:23:37;;;;;;;4.95;1.95;;;12.60;99.90;;;;;;5009805;28;20409;-51
2023/10/30 08:26:05;;;;;;;3.80;2.05;;;12.60;99.90;;;;;;5009509;28;20022;-50
2023/10/30 08:28:31;;;;;;;4.10;2.00;;;12.60;99.90;;;;;;5009131;28;20033;-51
2023/10/30 08:30:56;;;;;;;3.97;1.92;;;12.50;99.90;;;;;;5009237;28;20030;-49
2023/10/30 08:33:22;;;;;;;2.40;1.83;;;12.50;99.90;;;;;;5009179;28;20022;-52
2023/10/30 08:35:48;;;;;;;6.32;1.85;;;12.50;99.90;;;;;;5007930;28;20109;-54
2023/10/30 08:38:14;;;;;;;2.30;2.10;;;12.50;99.90;;;;;;5008785;28;20022;-49
2023/10/30 08:40:39;;;;;;;3.97;1.90;;;12.50;99.90;;;;;;5097635;28;20031;-48
2023/10/30 08:43:05;;;;;;;1.77;1.50;;;12.60;99.90;;;;;;5111682;28;20028;-49
2023/10/30 08:45:30;;;;;;;2.10;1.33;;;12.60;99.90;;;;;;5111559;28;20579;-48
2023/10/30 08:47:56;;;;;;;2.58;1.52;;;12.60;99.90;;;;;;5112091;28;20572;-46
2023/10/30 08:50:21;;;;;;;2.17;1.70;;;12.60;99.90;;;;;;5111648;28;20031;-49
2023/10/30 08:52:47;;;;;;;4.35;1.85;;;12.60;99.90;;;;;;5112043;28;20517;-51
2023/10/30 08:55:12;;;;;;;2.67;1.80;;;12.60;99.90;;;;;;5111942;28;20051;-49
2023/10/30 08:57:38;;;;;;;3.17;1.65;;;12.60;99.90;;;;;;5112023;28;20024;-50
2023/10/30 09:00:07;;;;;;;3.53;1.50;;;12.60;99.90;;;;;;5111773;28;20107;-52
2023/10/30 09:02:35;;;;;;;15.48;11.02;;;12.70;99.90;;;;;;5111845;28;20026;-49
2023/10/30 09:05:01;;;;;;;3.03;2.75;;;12.70;99.90;;;;;;5111814;28;20020;-48
2023/10/30 09:07:26;;;;;;;2.45;1.15;;;12.80;99.90;;;;;;5111936;28;20030;-49
2023/10/30 09:09:52;;;;;;;2.47;1.00;;;12.80;99.90;;;;;;5049564;28;20064;-49
2023/10/30 09:12:17;;;;;;;1.25;1.15;;;12.90;99.90;;;;;;5035263;28;20067;-51
2023/10/30 09:14:43;;;;;;;4.30;1.23;;;12.90;99.90;;;;;;5008011;28;20072;-52
2023/10/30 09:17:09;;;;;;;4.15;0.98;;;13.00;99.90;;;;;;5008430;28;20444;-48
2023/10/30 09:19:38;;;;;;;1.20;0.90;;;13.20;99.90;;;;;;5008251;28;20022;-48
2023/10/30 09:22:04;;;;;;;1.60;0.80;;;13.30;99.90;;;;;;5007069;28;20635;-48
2023/10/30 09:24:29;;;;;;;2.63;0.80;;;13.40;99.90;;;;;;5007889;28;20120;-48
2023/10/30 09:26:55;;;;;;;1.83;1.00;;;13.40;99.90;;;;;;5010388;28;20109;-48
2023/10/30 09:29:20;;;;;;;0.73;0.68;;;13.40;99.90;;;;;;5011639;28;20058;-48
2023/10/30 09:31:49;;;;;;;2.47;1.00;;;13.30;99.90;;;;;;5011701;28;20026;-51
2023/10/30 09:34:14;;;;;;;4.43;0.80;;;13.30;99.90;;;;;;5011693;28;20362;-51
2023/10/30 09:36:40;;;;;;;0.80;0.80;;;13.30;99.90;;;;;;5011435;28;20049;-48
2023/10/30 09:39:05;;;;;;;0.70;0.63;;;13.20;99.90;;;;;;5011652;28;20033;-50
2023/10/30 09:41:35;;;;;;;2.75;1.02;;;13.20;99.90;;;;;;5012032;28;20499;-52
2023/10/30 09:44:01;;;;;;;0.73;0.60;;;13.10;99.90;;;;;;5011820;28;20033;-51
2023/10/30 09:46:28;;;;;;;0.75;0.57;;;13.00;99.90;;;;;;5011981;28;20481;-51
2023/10/30 09:48:56;;;;;;;1.77;1.10;;;13.00;99.90;;;;;;5011589;28;20022;-50
2023/10/30 09:51:22;;;;;;;1.25;0.60;;;13.00;99.90;;;;;;5011687;28;20389;-48
2023/10/30 09:53:49;;;;;;;2.65;0.70;;;13.10;99.90;;;;;;5009831;28;20493;-49
2023/10/30 09:56:16;;;;;;;2.45;0.50;;;13.20;99.90;;;;;;4992292;28;20038;-51
2023/10/30 09:58:42;;;;;;;3.65;1.13;;;13.30;99.90;;;;;;4991864;28;20049;-53
2023/10/30 10:01:07;;;;;;;10.57;7.18;;;13.30;99.90;;;;;;4992178;28;20026;-51
2023/10/30 10:03:33;;;;;;;7.10;4.15;;;13.30;99.90;;;;;;4991945;28;20030;-54
2023/10/30 10:06:00;;;;;;;28.63;14.93;;;13.30;99.90;;;;;;4999543;28;20052;-51
2023/10/30 10:08:26;;;;;;;1.25;0.70;;;13.40;99.90;;;;;;5021031;28;20057;-47
2023/10/30 10:11:01;;;;;;;1.27;0.68;;;13.60;99.90;;;;;;5010758;28;20021;-53
2023/10/30 10:13:30;;;;;;;3.42;0.65;;;13.70;99.90;;;;;;5008178;28;20029;-52
2023/10/30 10:15:55;;;;;;;1.45;0.73;;;13.80;99.90;;;;;;5009500;28;20029;-47
2023/10/30 10:18:34;;;;;;;3.85;0.82;;;13.80;99.90;;;;;;5010278;28;20022;-48
2023/10/30 10:21:08;;;;;;;2.05;0.60;;;13.80;99.90;;;;;;5009410;28;20525;-48
2023/10/30 10:23:34;;;;;;;0.95;0.50;;;13.80;99.90;;;;;;5010791;28;20041;-52
2023/10/30 10:26:03;;;;;;;4.05;0.70;;;13.90;99.90;;;;;;5011519;28;20311;-51
2023/10/30 10:28:29;;;;;;;2.72;0.60;;;13.80;99.90;;;;;;5010762;28;20044;-49
2023/10/30 10:30:55;;;;;;;1.35;0.80;;;13.80;99.90;;;;;;5010373;28;20120;-48
2023/10/30 10:33:27;;;;;;;0.63;0.40;;;13.90;99.90;;;;;;5008517;28;20544;-53
2023/10/30 10:36:00;;;;;;;0.70;0.70;;;13.80;99.90;;;;;;5007793;28;20026;-49
2023/10/30 10:38:26;;;;;;;1.73;0.60;;;13.90;99.90;;;;;;5010655;28;20022;-51
2023/10/30 10:40:52;;;;;;;0.75;0.50;;;13.90;99.90;;;;;;5010806;28;20044;-51
2023/10/30 10:43:19;;;;;;;0.47;0.47;;;13.90;99.90;;;;;;5010705;28;20392;-52
2023/10/30 10:45:49;;;;;;;0.68;0.40;;;13.90;99.90;;;;;;5009789;28;20049;-51
2023/10/30 10:48:15;;;;;;;1.55;0.63;;;14.00;99.90;;;;;;5010520;28;20477;-50
2023/10/30 10:50:41;;;;;;;1.08;1.02;;;14.00;99.90;;;;;;5010801;28;20488;-53
2023/10/30 10:53:08;;;;;;;3.30;0.50;;;14.10;99.90;;;;;;4997265;28;20026;-54
2023/10/30 10:55:47;;;;;;;2.25;0.70;;;14.10;99.90;;;;;;4991107;28;20580;-52
2023/10/30 10:58:32;;;;;;;2.70;0.57;;;14.10;99.90;;;;;;4991153;28;20027;-50
2023/10/30 11:01:01;;;;;;;0.70;0.70;;;14.10;99.90;;;;;;4990241;28;20034;-50
2023/10/30 11:03:27;;;;;;;1.98;0.57;;;14.20;99.90;;;;;;4991215;28;20031;-48
2023/10/30 11:05:53;;;;;;;0.85;0.70;;;14.30;99.90;;;;;;4991007;28;20403;-48
2023/10/30 11:10:53;;;;;;;21.73;14.23;;;14.40;99.90;;;;;;5017600;28;19928;-54
2023/10/30 11:13:21;;;;;;;14.10;8.95;;;14.40;99.90;;;;;;5023525;28;20028;-52
2023/10/30 11:15:52;;;;;;;1.25;0.43;;;14.40;99.90;;;;;;5020432;28;20060;-58
2023/10/30 11:18:21;;;;;;;0.73;0.43;;;14.30;99.90;;;;;;5009883;28;20054;-55
2023/10/30 11:20:53;;;;;;;1.73;0.50;;;14.30;99.90;;;;;;4997576;28;20062;-54
2023/10/30 11:23:55;;;;;;;1.17;1.08;;;14.30;99.90;;;;;;4994846;28;20030;-54
2023/10/30 11:26:30;;;;;;;18.42;11.77;;;14.30;99.90;;;;;;5009742;28;20504;-57
2023/10/30 11:28:57;;;;;;;4.75;4.10;;;14.20;99.90;;;;;;4995133;28;20035;-58
2023/10/30 11:31:24;;;;;;;3.15;1.80;;;14.20;99.90;;;;;;5000644;28;20068;-53
2023/10/30 11:33:49;;;;;;;5.65;1.92;;;14.30;99.90;;;;;;5000892;28;20031;-54
2023/10/30 11:36:19;;;;;;;2.15;1.70;;;14.40;99.90;;;;;;4992295;28;20072;-54
2023/10/30 11:38:56;;;;;;;3.25;0.90;;;14.40;99.90;;;;;;4992009;28;20030;-55
2023/10/30 11:41:24;;;;;;;1.52;1.00;;;14.50;99.90;;;;;;4989218;28;20053;-51
2023/10/30 11:43:49;;;;;;;1.30;1.30;;;14.60;99.90;;;;;;5002481;28;20030;-53
2023/10/30 11:46:17;;;;;;;1.45;1.20;;;14.60;99.90;;;;;;5009260;28;20036;-48
2023/10/30 11:48:44;;;;;;;1.75;1.10;;;14.70;99.90;;;;;;5000824;28;20035;-49
2023/10/30 11:51:09;;;;;;;0.93;0.85;;;14.70;99.90;;;;;;4993726;28;20093;-54
2023/10/30 11:53:35;;;;;;;2.80;0.70;;;14.70;99.90;;;;;;4990642;28;20097;-46
2023/10/30 11:56:03;;;;;;;0.80;0.63;;;14.70;99.90;;;;;;4990764;28;20113;-46
2023/10/30 11:58:29;;;;;;;0.63;0.63;;;14.80;99.90;;;;;;4990463;28;20397;-49
2023/10/30 12:00:58;;;;;;;1.20;0.90;;;14.80;99.90;;;;;;4989256;28;20038;-49
2023/10/30 12:03:23;;;;;;;0.90;0.60;;;14.90;99.90;;;;;;4990707;28;20029;-48
2023/10/30 12:05:50;;;;;;;0.75;0.75;;;15.00;99.90;;;;;;4990505;28;20474;-47
2023/10/30 12:08:16;;;;;;;0.95;0.95;;;15.00;99.90;;;;;;4990299;28;20425;-50
2023/10/30 12:10:43;;;;;;;1.40;0.93;;;15.10;99.90;;;;;;4990174;28;20038;-53
2023/10/30 12:13:10;;;;;;;1.55;0.95;;;15.20;99.90;;;;;;4990522;28;20050;-50
2023/10/30 12:15:35;;;;;;;5.30;0.90;;;15.20;99.90;;;;;;4990495;28;20034;-50
2023/10/30 12:18:04;;;;;;;4.72;1.50;;;15.30;99.90;;;;;;4989172;28;20022;-51
2023/10/30 12:20:30;;;;;;;1.65;0.80;;;15.20;99.90;;;;;;4990346;28;20486;-50
2023/10/30 12:22:56;;;;;;;2.55;1.00;;;15.20;99.90;;;;;;4990758;28;20101;-51
2023/10/30 12:25:21;;;;;;;3.70;1.17;;;15.20;99.90;;;;;;4990865;28;20050;-49
2023/10/30 12:27:47;;;;;;;2.00;0.70;;;15.30;99.90;;;;;;4989049;28;20049;-51
2023/10/30 12:30:17;;;;;;;1.38;1.10;;;15.20;99.90;;;;;;4990168;28;20079;-47
2023/10/30 12:32:53;;;;;;;3.15;1.00;;;15.20;99.90;;;;;;4989623;28;20032;-51
2023/10/30 12:35:19;;;;;;;1.20;0.82;;;15.20;99.90;;;;;;5010549;28;20022;-50
2023/10/30 12:37:45;;;;;;;2.38;1.00;;;15.10;99.90;;;;;;5009337;28;20022;-46
2023/10/30 12:40:14;;;;;;;40.50;24.02;;;15.10;99.90;;;;;;5009396;28;20056;-46
2023/10/30 12:42:44;;;;;;;11.18;7.45;;;15.20;99.90;;;;;;5009620;28;20065;-49